Aviation Digital Data Service (ADDS)

Output produced by METARs form (1526 UTC 19 January 2019)
found at http://www.aviationweather.gov/metar/data/
 
METAR text: VERC 191500Z 02003KT 3500 HZ NSC 15/03 Q1018 NOSIG
Conditions at: VERC (RANCHI , IN) observed 1500 UTC 19 January 2019
Temperature: 15.0°C (59°F)
Dewpoint: 3.0°C (37°F) [RH = 44%]
Pressure (altimeter): 30.06 inches Hg (1018.0 mb)
Winds: from the NNE (20 degrees) at 3 MPH (3 knots; 1.5 m/s)
Visibility: 2.17 miles (3.49 km)
Ceiling: at least 12,000 feet AGL
Clouds: sky clear below 12,000 feet AGL
Weather: HZ  (haze)

METAR text: VERC 191430Z 02003KT 3500 HZ NSC 15/08 Q1018 NOSIG
Conditions at: VERC (RANCHI , IN) observed 1430 UTC 19 January 2019
Temperature: 15.0°C (59°F)
Dewpoint: 8.0°C (46°F) [RH = 63%]
Pressure (altimeter): 30.06 inches Hg (1018.0 mb)
Winds: from the NNE (20 degrees) at 3 MPH (3 knots; 1.5 m/s)
Visibility: 2.17 miles (3.49 km)
Ceiling: at least 12,000 feet AGL
Clouds: sky clear below 12,000 feet AGL
Weather: HZ  (haze)

METAR text: VERC 191400Z 02002KT 3500 HZ NSC 15/08 Q1018 NOSIG
Conditions at: VERC (RANCHI , IN) observed 1400 UTC 19 January 2019
Temperature: 15.0°C (59°F)
Dewpoint: 8.0°C (46°F) [RH = 63%]
Pressure (altimeter): 30.06 inches Hg (1018.0 mb)
Winds: from the NNE (20 degrees) at 2 MPH (2 knots; 1.0 m/s)
Visibility: 2.17 miles (3.49 km)
Ceiling: at least 12,000 feet AGL
Clouds: sky clear below 12,000 feet AGL
Weather: HZ  (haze)

METAR text: VERC 191330Z 02002KT 3500 HZ NSC 16/08 Q1018 NOSIG
Conditions at: VERC (RANCHI , IN) observed 1330 UTC 19 January 2019
Temperature: 16.0°C (61°F)
Dewpoint: 8.0°C (46°F) [RH = 59%]
Pressure (altimeter): 30.06 inches Hg (1018.0 mb)
Winds: from the NNE (20 degrees) at 2 MPH (2 knots; 1.0 m/s)
Visibility: 2.17 miles (3.49 km)
Ceiling: at least 12,000 feet AGL
Clouds: sky clear below 12,000 feet AGL
Weather: HZ  (haze)

METAR text: VERC 191300Z 00000KT 3500 HZ NSC 17/07 Q1018 NOSIG
Conditions at: VERC (RANCHI , IN) observed 1300 UTC 19 January 2019
Temperature: 17.0°C (63°F)
Dewpoint: 7.0°C (45°F) [RH = 52%]
Pressure (altimeter): 30.06 inches Hg (1018.0 mb)
Winds: calm
Visibility: 2.17 miles (3.49 km)
Ceiling: at least 12,000 feet AGL
Clouds: sky clear below 12,000 feet AGL
Weather: HZ  (haze)

METAR text: VERC 191230Z 00000KT 4000 HZ NSC 18/07 Q1017 NOSIG
Conditions at: VERC (RANCHI , IN) observed 1230 UTC 19 January 2019
Temperature: 18.0°C (64°F)
Dewpoint: 7.0°C (45°F) [RH = 49%]
Pressure (altimeter): 30.03 inches Hg (1017.0 mb)
Winds: calm
Visibility: 2.49 miles (4.01 km)
Ceiling: at least 12,000 feet AGL
Clouds: sky clear below 12,000 feet AGL
Weather: HZ  (haze)

METAR text: VERC 191200Z 00000KT 5000 HZ NSC 20/06 Q1017 NOSIG
Conditions at: VERC (RANCHI , IN) observed 1200 UTC 19 January 2019
Temperature: 20.0°C (68°F)
Dewpoint: 6.0°C (43°F) [RH = 40%]
Pressure (altimeter): 30.03 inches Hg (1017.0 mb)
Winds: calm
Visibility: 3 miles ( 5 km)
Ceiling: at least 12,000 feet AGL
Clouds: sky clear below 12,000 feet AGL
Weather: HZ  (haze)

METAR text: VERC 191130Z 02002KT 5000 HZ NSC 20/03 Q1017 NOSIG
Conditions at: VERC (RANCHI , IN) observed 1130 UTC 19 January 2019
Temperature: 20.0°C (68°F)
Dewpoint: 3.0°C (37°F) [RH = 32%]
Pressure (altimeter): 30.03 inches Hg (1017.0 mb)
Winds: from the NNE (20 degrees) at 2 MPH (2 knots; 1.0 m/s)
Visibility: 3 miles ( 5 km)
Ceiling: at least 12,000 feet AGL
Clouds: sky clear below 12,000 feet AGL
Weather: HZ  (haze)

METAR text: VERC 191100Z 02002KT 5000 HZ NSC 21/02 Q1017 NOSIG
Conditions at: VERC (RANCHI , IN) observed 1100 UTC 19 January 2019
Temperature: 21.0°C (70°F)
Dewpoint: 2.0°C (36°F) [RH = 28%]
Pressure (altimeter): 30.03 inches Hg (1017.0 mb)
Winds: from the NNE (20 degrees) at 2 MPH (2 knots; 1.0 m/s)
Visibility: 3 miles ( 5 km)
Ceiling: at least 12,000 feet AGL
Clouds: sky clear below 12,000 feet AGL
Weather: HZ  (haze)

METAR text: VERC 191030Z 02002KT 5000 HZ NSC 22/01 Q1016 NOSIG
Conditions at: VERC (RANCHI , IN) observed 1030 UTC 19 January 2019
Temperature: 22.0°C (72°F)
Dewpoint: 1.0°C (34°F) [RH = 25%]
Pressure (altimeter): 30.00 inches Hg (1016.0 mb)
Winds: from the NNE (20 degrees) at 2 MPH (2 knots; 1.0 m/s)
Visibility: 3 miles ( 5 km)
Ceiling: at least 12,000 feet AGL
Clouds: sky clear below 12,000 feet AGL
Weather: HZ  (haze)

METAR text: VERC 191000Z 28002KT 5000 HZ NSC 22/01 Q1016 NOSIG
Conditions at: VERC (RANCHI , IN) observed 1000 UTC 19 January 2019
Temperature: 22.0°C (72°F)
Dewpoint: 1.0°C (34°F) [RH = 25%]
Pressure (altimeter): 30.00 inches Hg (1016.0 mb)
Winds: from the W (280 degrees) at 2 MPH (2 knots; 1.0 m/s)
Visibility: 3 miles ( 5 km)
Ceiling: at least 12,000 feet AGL
Clouds: sky clear below 12,000 feet AGL
Weather: HZ  (haze)

METAR text: VERC 190930Z 02003KT 5000 HZ NSC 23/M01 Q1017 NOSIG
Conditions at: VERC (RANCHI , IN) observed 0930 UTC 19 January 2019
Temperature: 23.0°C (73°F)
Dewpoint: -1.0°C (30°F) [RH = 20%]
Pressure (altimeter): 30.03 inches Hg (1017.0 mb)
Winds: from the NNE (20 degrees) at 3 MPH (3 knots; 1.5 m/s)
Visibility: 3 miles ( 5 km)
Ceiling: at least 12,000 feet AGL
Clouds: sky clear below 12,000 feet AGL
Weather: HZ  (haze)

METAR text: VERC 190900Z 04003KT 5000 HZ NSC 23/M01 Q1017 NOSIG
Conditions at: VERC (RANCHI , IN) observed 0900 UTC 19 January 2019
Temperature: 23.0°C (73°F)
Dewpoint: -1.0°C (30°F) [RH = 20%]
Pressure (altimeter): 30.03 inches Hg (1017.0 mb)
Winds: from the NE (40 degrees) at 3 MPH (3 knots; 1.5 m/s)
Visibility: 3 miles ( 5 km)
Ceiling: at least 12,000 feet AGL
Clouds: sky clear below 12,000 feet AGL
Weather: HZ  (haze)

METAR text: VERC 190830Z 03004KT 5000 HZ NSC 23/M02 Q1017 NOSIG
Conditions at: VERC (RANCHI , IN) observed 0830 UTC 19 January 2019
Temperature: 23.0°C (73°F)
Dewpoint: -2.0°C (28°F) [RH = 19%]
Pressure (altimeter): 30.03 inches Hg (1017.0 mb)
Winds: from the NNE (30 degrees) at 5 MPH (4 knots; 2.1 m/s)
Visibility: 3 miles ( 5 km)
Ceiling: at least 12,000 feet AGL
Clouds: sky clear below 12,000 feet AGL
Weather: HZ  (haze)

METAR text: VERC 190800Z 05002KT 5000 HZ NSC 23/M02 Q1018 NOSIG
Conditions at: VERC (RANCHI , IN) observed 0800 UTC 19 January 2019
Temperature: 23.0°C (73°F)
Dewpoint: -2.0°C (28°F) [RH = 19%]
Pressure (altimeter): 30.06 inches Hg (1018.0 mb)
Winds: from the NE (50 degrees) at 2 MPH (2 knots; 1.0 m/s)
Visibility: 3 miles ( 5 km)
Ceiling: at least 12,000 feet AGL
Clouds: sky clear below 12,000 feet AGL
Weather: HZ  (haze)

METAR text: VERC 190730Z 02003KT 5000 HZ NSC 23/M02 Q1018 NOSIG
Conditions at: VERC (RANCHI , IN) observed 0730 UTC 19 January 2019
Temperature: 23.0°C (73°F)
Dewpoint: -2.0°C (28°F) [RH = 19%]
Pressure (altimeter): 30.06 inches Hg (1018.0 mb)
Winds: from the NNE (20 degrees) at 3 MPH (3 knots; 1.5 m/s)
Visibility: 3 miles ( 5 km)
Ceiling: at least 12,000 feet AGL
Clouds: sky clear below 12,000 feet AGL
Weather: HZ  (haze)

METAR text: VERC 190700Z 05005KT 5000 HZ NSC 21/02 Q1019 NOSIG
Conditions at: VERC (RANCHI , IN) observed 0700 UTC 19 January 2019
Temperature: 21.0°C (70°F)
Dewpoint: 2.0°C (36°F) [RH = 28%]
Pressure (altimeter): 30.09 inches Hg (1019.0 mb)
Winds: from the NE (50 degrees) at 6 MPH (5 knots; 2.6 m/s)
Visibility: 3 miles ( 5 km)
Ceiling: at least 12,000 feet AGL
Clouds: sky clear below 12,000 feet AGL
Weather: HZ  (haze)

METAR text: VERC 190630Z 02003KT 4000 HZ NSC 21/02 Q1019 BECMG 5000 HZ
Conditions at: VERC (RANCHI , IN) observed 0630 UTC 19 January 2019
Temperature: 21.0°C (70°F)
Dewpoint: 2.0°C (36°F) [RH = 28%]
Pressure (altimeter): 30.09 inches Hg (1019.0 mb)
Winds: from the NNE (20 degrees) at 3 MPH (3 knots; 1.5 m/s)
Visibility: 2.49 miles (4.01 km)
Ceiling: at least 12,000 feet AGL
Clouds: sky clear below 12,000 feet AGL
Weather: HZ  (haze)

METAR text: VERC 190600Z 36003KT 4000 HZ NSC 21/02 Q1020 NOSIG
Conditions at: VERC (RANCHI , IN) observed 0600 UTC 19 January 2019
Temperature: 21.0°C (70°F)
Dewpoint: 2.0°C (36°F) [RH = 28%]
Pressure (altimeter): 30.12 inches Hg (1020.0 mb)
Winds: from the N (360 degrees) at 3 MPH (3 knots; 1.5 m/s)
Visibility: 2.49 miles (4.01 km)
Ceiling: at least 12,000 feet AGL
Clouds: sky clear below 12,000 feet AGL
Weather: HZ  (haze)

METAR text: VERC 190530Z 36002KT 4000 HZ NSC 20/03 Q1020 NOSIG
Conditions at: VERC (RANCHI , IN) observed 0530 UTC 19 January 2019
Temperature: 20.0°C (68°F)
Dewpoint: 3.0°C (37°F) [RH = 32%]
Pressure (altimeter): 30.12 inches Hg (1020.0 mb)
Winds: from the N (360 degrees) at 2 MPH (2 knots; 1.0 m/s)
Visibility: 2.49 miles (4.01 km)
Ceiling: at least 12,000 feet AGL
Clouds: sky clear below 12,000 feet AGL
Weather: HZ  (haze)

METAR text: VERC 190500Z 04004KT 3500 HZ NSC 19/03 Q1020 NOSIG
Conditions at: VERC (RANCHI , IN) observed 0500 UTC 19 January 2019
Temperature: 19.0°C (66°F)
Dewpoint: 3.0°C (37°F) [RH = 34%]
Pressure (altimeter): 30.12 inches Hg (1020.0 mb)
Winds: from the NE (40 degrees) at 5 MPH (4 knots; 2.1 m/s)
Visibility: 2.17 miles (3.49 km)
Ceiling: at least 12,000 feet AGL
Clouds: sky clear below 12,000 feet AGL
Weather: HZ  (haze)

METAR text: VERC 190430Z 36004KT 3000 HZ NSC 18/03 Q1020 NOSIG
Conditions at: VERC (RANCHI , IN) observed 0430 UTC 19 January 2019
Temperature: 18.0°C (64°F)
Dewpoint: 3.0°C (37°F) [RH = 37%]
Pressure (altimeter): 30.12 inches Hg (1020.0 mb)
Winds: from the N (360 degrees) at 5 MPH (4 knots; 2.1 m/s)
Visibility: 1.86 miles (2.99 km)
Ceiling: at least 12,000 feet AGL
Clouds: sky clear below 12,000 feet AGL
Weather: HZ  (haze)

METAR text: VERC 190400Z 36003KT 2500 HZ NSC 17/02 Q1020 BECMG 3000 HZ
Conditions at: VERC (RANCHI , IN) observed 0400 UTC 19 January 2019
Temperature: 17.0°C (63°F)
Dewpoint: 2.0°C (36°F) [RH = 36%]
Pressure (altimeter): 30.12 inches Hg (1020.0 mb)
Winds: from the N (360 degrees) at 3 MPH (3 knots; 1.5 m/s)
Visibility: 1.55 miles (2.49 km)
Ceiling: at least 12,000 feet AGL
Clouds: sky clear below 12,000 feet AGL
Weather: HZ  (haze)

METAR text: VERC 190330Z 00000KT 2000 HZ NSC 13/05 Q1020 NOSIG
Conditions at: VERC (RANCHI , IN) observed 0330 UTC 19 January 2019
Temperature: 13.0°C (55°F)
Dewpoint: 5.0°C (41°F) [RH = 58%]
Pressure (altimeter): 30.12 inches Hg (1020.0 mb)
Winds: calm
Visibility: 1.24 miles (2.00 km)
Ceiling: at least 12,000 feet AGL
Clouds: sky clear below 12,000 feet AGL
Weather: HZ  (haze)

METAR text: VERC 190300Z 00000KT 1700 BR NSC 11/06 Q1020 NOSIG
Conditions at: VERC (RANCHI , IN) observed 0300 UTC 19 January 2019
Temperature: 11.0°C (52°F)
Dewpoint: 6.0°C (43°F) [RH = 71%]
Pressure (altimeter): 30.12 inches Hg (1020.0 mb)
Winds: calm
Visibility: 1.06 miles (1.71 km)
Ceiling: at least 12,000 feet AGL
Clouds: sky clear below 12,000 feet AGL
Weather: BR  (mist)

METAR text: VERC 190230Z 00000KT 1500 BR NSC 11/04 Q1020 NOSIG
Conditions at: VERC (RANCHI , IN) observed 0230 UTC 19 January 2019
Temperature: 11.0°C (52°F)
Dewpoint: 4.0°C (39°F) [RH = 62%]
Pressure (altimeter): 30.12 inches Hg (1020.0 mb)
Winds: calm
Visibility: 0.93 miles (1.50 km)
Ceiling: at least 12,000 feet AGL
Clouds: sky clear below 12,000 feet AGL
Weather: BR  (mist)

METAR text: VERC 190200Z 00000KT 1500 BR NSC 10/05 Q1019 NOSIG
Conditions at: VERC (RANCHI , IN) observed 0200 UTC 19 January 2019
Temperature: 10.0°C (50°F)
Dewpoint: 5.0°C (41°F) [RH = 71%]
Pressure (altimeter): 30.09 inches Hg (1019.0 mb)
Winds: calm
Visibility: 0.93 miles (1.50 km)
Ceiling: at least 12,000 feet AGL
Clouds: sky clear below 12,000 feet AGL
Weather: BR  (mist)

METAR text: VERC 190130Z 00000KT 1500 BR NSC 09/05 Q1019 NOSIG
Conditions at: VERC (RANCHI , IN) observed 0130 UTC 19 January 2019
Temperature: 9.0°C (48°F)
Dewpoint: 5.0°C (41°F) [RH = 76%]
Pressure (altimeter): 30.09 inches Hg (1019.0 mb)
Winds: calm
Visibility: 0.93 miles (1.50 km)
Ceiling: at least 12,000 feet AGL
Clouds: sky clear below 12,000 feet AGL
Weather: BR  (mist)

METAR text: VERC 190100Z 00000KT 2000 HZ NSC 09/05 Q1018 BECMG 1500 BR
Conditions at: VERC (RANCHI , IN) observed 0100 UTC 19 January 2019
Temperature: 9.0°C (48°F)
Dewpoint: 5.0°C (41°F) [RH = 76%]
Pressure (altimeter): 30.06 inches Hg (1018.0 mb)
Winds: calm
Visibility: 1.24 miles (2.00 km)
Ceiling: at least 12,000 feet AGL
Clouds: sky clear below 12,000 feet AGL
Weather: HZ  (haze)

METAR text: VERC 190030Z 00000KT 2500 HZ NSC 09/05 Q1018 NOSIG
Conditions at: VERC (RANCHI , IN) observed 0030 UTC 19 January 2019
Temperature: 9.0°C (48°F)
Dewpoint: 5.0°C (41°F) [RH = 76%]
Pressure (altimeter): 30.06 inches Hg (1018.0 mb)
Winds: calm
Visibility: 1.55 miles (2.49 km)
Ceiling: at least 12,000 feet AGL
Clouds: sky clear below 12,000 feet AGL
Weather: HZ  (haze)

METAR text: VERC 180000Z 00000KT 2500 HZ NSC 09/05 Q1018 NOSIG
Conditions at: VERC (RANCHI , IN) observed 0000 UTC 19 January 2019
Temperature: 9.0°C (48°F)
Dewpoint: 5.0°C (41°F) [RH = 76%]
Pressure (altimeter): 30.06 inches Hg (1018.0 mb)
Winds: calm
Visibility: 1.55 miles (2.49 km)
Ceiling: at least 12,000 feet AGL
Clouds: sky clear below 12,000 feet AGL
Weather: HZ  (haze)

METAR text: VERC 182300Z 00000KT 2500 HZ NSC 10/05 Q1017 NOSIG
Conditions at: VERC (RANCHI , IN) observed 2300 UTC 18 January 2019
Temperature: 10.0°C (50°F)
Dewpoint: 5.0°C (41°F) [RH = 71%]
Pressure (altimeter): 30.03 inches Hg (1017.0 mb)
Winds: calm
Visibility: 1.55 miles (2.49 km)
Ceiling: at least 12,000 feet AGL
Clouds: sky clear below 12,000 feet AGL
Weather: HZ  (haze)

METAR text: VERC 182200Z 00000KT 2500 HZ NSC 11/04 Q1017 NOSIG
Conditions at: VERC (RANCHI , IN) observed 2200 UTC 18 January 2019
Temperature: 11.0°C (52°F)
Dewpoint: 4.0°C (39°F) [RH = 62%]
Pressure (altimeter): 30.03 inches Hg (1017.0 mb)
Winds: calm
Visibility: 1.55 miles (2.49 km)
Ceiling: at least 12,000 feet AGL
Clouds: sky clear below 12,000 feet AGL
Weather: HZ  (haze)

METAR text: VERC 182100Z 00000KT 3000 HZ NSC 12/04 Q1017 NOSIG
Conditions at: VERC (RANCHI , IN) observed 2100 UTC 18 January 2019
Temperature: 12.0°C (54°F)
Dewpoint: 4.0°C (39°F) [RH = 58%]
Pressure (altimeter): 30.03 inches Hg (1017.0 mb)
Winds: calm
Visibility: 1.86 miles (2.99 km)
Ceiling: at least 12,000 feet AGL
Clouds: sky clear below 12,000 feet AGL
Weather: HZ  (haze)

METAR text: VERC 182000Z 00000KT 3000 HZ NSC 12/04 Q1018 NOSIG
Conditions at: VERC (RANCHI , IN) observed 2000 UTC 18 January 2019
Temperature: 12.0°C (54°F)
Dewpoint: 4.0°C (39°F) [RH = 58%]
Pressure (altimeter): 30.06 inches Hg (1018.0 mb)
Winds: calm
Visibility: 1.86 miles (2.99 km)
Ceiling: at least 12,000 feet AGL
Clouds: sky clear below 12,000 feet AGL
Weather: HZ  (haze)

METAR text: VERC 181900Z 00000KT 3000 HZ NSC 12/04 Q1018 NOSIG
Conditions at: VERC (RANCHI , IN) observed 1900 UTC 18 January 2019
Temperature: 12.0°C (54°F)
Dewpoint: 4.0°C (39°F) [RH = 58%]
Pressure (altimeter): 30.06 inches Hg (1018.0 mb)
Winds: calm
Visibility: 1.86 miles (2.99 km)
Ceiling: at least 12,000 feet AGL
Clouds: sky clear below 12,000 feet AGL
Weather: HZ  (haze)

METAR text: VERC 181800Z 00000KT 3000 HZ NSC 13/03 Q1018 NOSIG
Conditions at: VERC (RANCHI , IN) observed 1800 UTC 18 January 2019
Temperature: 13.0°C (55°F)
Dewpoint: 3.0°C (37°F) [RH = 51%]
Pressure (altimeter): 30.06 inches Hg (1018.0 mb)
Winds: calm
Visibility: 1.86 miles (2.99 km)
Ceiling: at least 12,000 feet AGL
Clouds: sky clear below 12,000 feet AGL
Weather: HZ  (haze)

METAR text: VERC 181730Z 00000KT 3000 HZ NSC 13/03 Q1018 NOSIG
Conditions at: VERC (RANCHI , IN) observed 1730 UTC 18 January 2019
Temperature: 13.0°C (55°F)
Dewpoint: 3.0°C (37°F) [RH = 51%]
Pressure (altimeter): 30.06 inches Hg (1018.0 mb)
Winds: calm
Visibility: 1.86 miles (2.99 km)
Ceiling: at least 12,000 feet AGL
Clouds: sky clear below 12,000 feet AGL
Weather: HZ  (haze)

METAR text: VERC 181700Z 00000KT 3000 HZ NSC 13/02 Q1018 NOSIG
Conditions at: VERC (RANCHI , IN) observed 1700 UTC 18 January 2019
Temperature: 13.0°C (55°F)
Dewpoint: 2.0°C (36°F) [RH = 47%]
Pressure (altimeter): 30.06 inches Hg (1018.0 mb)
Winds: calm
Visibility: 1.86 miles (2.99 km)
Ceiling: at least 12,000 feet AGL
Clouds: sky clear below 12,000 feet AGL
Weather: HZ  (haze)

METAR text: VERC 181630Z 00000KT 3000 HZ NSC 14/05 Q1018 NOSIG
Conditions at: VERC (RANCHI , IN) observed 1630 UTC 18 January 2019
Temperature: 14.0°C (57°F)
Dewpoint: 5.0°C (41°F) [RH = 55%]
Pressure (altimeter): 30.06 inches Hg (1018.0 mb)
Winds: calm
Visibility: 1.86 miles (2.99 km)
Ceiling: at least 12,000 feet AGL
Clouds: sky clear below 12,000 feet AGL
Weather: HZ  (haze)

METAR text: VERC 181600Z 00000KT 3000 HZ NSC 14/04 Q1018 NOSIG
Conditions at: VERC (RANCHI , IN) observed 1600 UTC 18 January 2019
Temperature: 14.0°C (57°F)
Dewpoint: 4.0°C (39°F) [RH = 51%]
Pressure (altimeter): 30.06 inches Hg (1018.0 mb)
Winds: calm
Visibility: 1.86 miles (2.99 km)
Ceiling: at least 12,000 feet AGL
Clouds: sky clear below 12,000 feet AGL
Weather: HZ  (haze)

METAR text: VERC 181530Z 00000KT 3000 HZ NSC 15/04 Q1018 NOSIG
Conditions at: VERC (RANCHI , IN) observed 1530 UTC 18 January 2019
Temperature: 15.0°C (59°F)
Dewpoint: 4.0°C (39°F) [RH = 48%]
Pressure (altimeter): 30.06 inches Hg (1018.0 mb)
Winds: calm
Visibility: 1.86 miles (2.99 km)
Ceiling: at least 12,000 feet AGL
Clouds: sky clear below 12,000 feet AGL
Weather: HZ  (haze)

METAR text: VERC 181500Z 00000KT 3000 HZ NSC 15/04 Q1017 NOSIG
Conditions at: VERC (RANCHI , IN) observed 1500 UTC 18 January 2019
Temperature: 15.0°C (59°F)
Dewpoint: 4.0°C (39°F) [RH = 48%]
Pressure (altimeter): 30.03 inches Hg (1017.0 mb)
Winds: calm
Visibility: 1.86 miles (2.99 km)
Ceiling: at least 12,000 feet AGL
Clouds: sky clear below 12,000 feet AGL
Weather: HZ  (haze)

METAR text: VERC 181430Z 00000KT 3500 HZ NSC 16/06 Q1017 BECMG 3000 HZ
Conditions at: VERC (RANCHI , IN) observed 1430 UTC 18 January 2019
Temperature: 16.0°C (61°F)
Dewpoint: 6.0°C (43°F) [RH = 51%]
Pressure (altimeter): 30.03 inches Hg (1017.0 mb)
Winds: calm
Visibility: 2.17 miles (3.49 km)
Ceiling: at least 12,000 feet AGL
Clouds: sky clear below 12,000 feet AGL
Weather: HZ  (haze)

METAR text: VERC 181400Z 02002KT 4000 HZ NSC 17/05 Q1017 NOSIG
Conditions at: VERC (RANCHI , IN) observed 1400 UTC 18 January 2019
Temperature: 17.0°C (63°F)
Dewpoint: 5.0°C (41°F) [RH = 45%]
Pressure (altimeter): 30.03 inches Hg (1017.0 mb)
Winds: from the NNE (20 degrees) at 2 MPH (2 knots; 1.0 m/s)
Visibility: 2.49 miles (4.01 km)
Ceiling: at least 12,000 feet AGL
Clouds: sky clear below 12,000 feet AGL
Weather: HZ  (haze)

METAR text: VERC 181330Z 02002KT 4000 HZ NSC 18/05 Q1016 NOSIG
Conditions at: VERC (RANCHI , IN) observed 1330 UTC 18 January 2019
Temperature: 18.0°C (64°F)
Dewpoint: 5.0°C (41°F) [RH = 42%]
Pressure (altimeter): 30.00 inches Hg (1016.0 mb)
Winds: from the NNE (20 degrees) at 2 MPH (2 knots; 1.0 m/s)
Visibility: 2.49 miles (4.01 km)
Ceiling: at least 12,000 feet AGL
Clouds: sky clear below 12,000 feet AGL
Weather: HZ  (haze)

METAR text: VERC 181300Z 36003KT 4000 HZ NSC 19/04 Q1016 NOSIG
Conditions at: VERC (RANCHI , IN) observed 1300 UTC 18 January 2019
Temperature: 19.0°C (66°F)
Dewpoint: 4.0°C (39°F) [RH = 37%]
Pressure (altimeter): 30.00 inches Hg (1016.0 mb)
Winds: from the N (360 degrees) at 3 MPH (3 knots; 1.5 m/s)
Visibility: 2.49 miles (4.01 km)
Ceiling: at least 12,000 feet AGL
Clouds: sky clear below 12,000 feet AGL
Weather: HZ  (haze)

METAR text: VERC 181230Z 36003KT 5000 HZ NSC 20/04 Q1016 NOSIG
Conditions at: VERC (RANCHI , IN) observed 1230 UTC 18 January 2019
Temperature: 20.0°C (68°F)
Dewpoint: 4.0°C (39°F) [RH = 35%]
Pressure (altimeter): 30.00 inches Hg (1016.0 mb)
Winds: from the N (360 degrees) at 3 MPH (3 knots; 1.5 m/s)
Visibility: 3 miles ( 5 km)
Ceiling: at least 12,000 feet AGL
Clouds: sky clear below 12,000 feet AGL
Weather: HZ  (haze)

METAR text: VERC 181200Z 36002KT 5000 HZ NSC 20/04 Q1016 NOSIG
Conditions at: VERC (RANCHI , IN) observed 1200 UTC 18 January 2019
Temperature: 20.0°C (68°F)
Dewpoint: 4.0°C (39°F) [RH = 35%]
Pressure (altimeter): 30.00 inches Hg (1016.0 mb)
Winds: from the N (360 degrees) at 2 MPH (2 knots; 1.0 m/s)
Visibility: 3 miles ( 5 km)
Ceiling: at least 12,000 feet AGL
Clouds: sky clear below 12,000 feet AGL
Weather: HZ  (haze)

METAR text: VERC 181130Z 36002KT 5000 HZ NSC 21/04 Q1015 NOSIG
Conditions at: VERC (RANCHI , IN) observed 1130 UTC 18 January 2019
Temperature: 21.0°C (70°F)
Dewpoint: 4.0°C (39°F) [RH = 33%]
Pressure (altimeter): 29.97 inches Hg (1015.0 mb)
Winds: from the N (360 degrees) at 2 MPH (2 knots; 1.0 m/s)
Visibility: 3 miles ( 5 km)
Ceiling: at least 12,000 feet AGL
Clouds: sky clear below 12,000 feet AGL
Weather: HZ  (haze)

METAR text: VERC 181100Z 36003KT 5000 HZ NSC 23/03 Q1015 NOSIG
Conditions at: VERC (RANCHI , IN) observed 1100 UTC 18 January 2019
Temperature: 23.0°C (73°F)
Dewpoint: 3.0°C (37°F) [RH = 27%]
Pressure (altimeter): 29.97 inches Hg (1015.0 mb)
Winds: from the N (360 degrees) at 3 MPH (3 knots; 1.5 m/s)
Visibility: 3 miles ( 5 km)
Ceiling: at least 12,000 feet AGL
Clouds: sky clear below 12,000 feet AGL
Weather: HZ  (haze)

METAR text: VERC 181030Z 36003KT 5000 HZ NSC 23/03 Q1015 NOSIG
Conditions at: VERC (RANCHI , IN) observed 1030 UTC 18 January 2019
Temperature: 23.0°C (73°F)
Dewpoint: 3.0°C (37°F) [RH = 27%]
Pressure (altimeter): 29.97 inches Hg (1015.0 mb)
Winds: from the N (360 degrees) at 3 MPH (3 knots; 1.5 m/s)
Visibility: 3 miles ( 5 km)
Ceiling: at least 12,000 feet AGL
Clouds: sky clear below 12,000 feet AGL
Weather: HZ  (haze)

METAR text: VERC 181000Z 36002KT 5000 HZ NSC 24/02 Q1015 NOSIG
Conditions at: VERC (RANCHI , IN) observed 1000 UTC 18 January 2019
Temperature: 24.0°C (75°F)
Dewpoint: 2.0°C (36°F) [RH = 24%]
Pressure (altimeter): 29.97 inches Hg (1015.0 mb)
Winds: from the N (360 degrees) at 2 MPH (2 knots; 1.0 m/s)
Visibility: 3 miles ( 5 km)
Ceiling: at least 12,000 feet AGL
Clouds: sky clear below 12,000 feet AGL
Weather: HZ  (haze)

METAR text: VERC 180930Z 36002KT 5000 HZ NSC 24/02 Q1015 NOSIG
Conditions at: VERC (RANCHI , IN) observed 0930 UTC 18 January 2019
Temperature: 24.0°C (75°F)
Dewpoint: 2.0°C (36°F) [RH = 24%]
Pressure (altimeter): 29.97 inches Hg (1015.0 mb)
Winds: from the N (360 degrees) at 2 MPH (2 knots; 1.0 m/s)
Visibility: 3 miles ( 5 km)
Ceiling: at least 12,000 feet AGL
Clouds: sky clear below 12,000 feet AGL
Weather: HZ  (haze)

METAR text: VERC 180900Z 32004KT 5000 HZ NSC 24/02 Q1016 NOSIG
Conditions at: VERC (RANCHI , IN) observed 0900 UTC 18 January 2019
Temperature: 24.0°C (75°F)
Dewpoint: 2.0°C (36°F) [RH = 24%]
Pressure (altimeter): 30.00 inches Hg (1016.0 mb)
Winds: from the NW (320 degrees) at 5 MPH (4 knots; 2.1 m/s)
Visibility: 3 miles ( 5 km)
Ceiling: at least 12,000 feet AGL
Clouds: sky clear below 12,000 feet AGL
Weather: HZ  (haze)

METAR text: VERC 180830Z 25004KT 5000 HZ NSC 23/01 Q1016 NOSIG
Conditions at: VERC (RANCHI , IN) observed 0830 UTC 18 January 2019
Temperature: 23.0°C (73°F)
Dewpoint: 1.0°C (34°F) [RH = 23%]
Pressure (altimeter): 30.00 inches Hg (1016.0 mb)
Winds: from the WSW (250 degrees) at 5 MPH (4 knots; 2.1 m/s)
Visibility: 3 miles ( 5 km)
Ceiling: at least 12,000 feet AGL
Clouds: sky clear below 12,000 feet AGL
Weather: HZ  (haze)

METAR text: VERC 180800Z 25004KT 5000 HZ NSC 23/01 Q1016 NOSIG
Conditions at: VERC (RANCHI , IN) observed 0800 UTC 18 January 2019
Temperature: 23.0°C (73°F)
Dewpoint: 1.0°C (34°F) [RH = 23%]
Pressure (altimeter): 30.00 inches Hg (1016.0 mb)
Winds: from the WSW (250 degrees) at 5 MPH (4 knots; 2.1 m/s)
Visibility: 3 miles ( 5 km)
Ceiling: at least 12,000 feet AGL
Clouds: sky clear below 12,000 feet AGL
Weather: HZ  (haze)

METAR text: VERC 180730Z 03005KT 5000 HZ NSC 23/02 Q1017 NOSIG
Conditions at: VERC (RANCHI , IN) observed 0730 UTC 18 January 2019
Temperature: 23.0°C (73°F)
Dewpoint: 2.0°C (36°F) [RH = 25%]
Pressure (altimeter): 30.03 inches Hg (1017.0 mb)
Winds: from the NNE (30 degrees) at 6 MPH (5 knots; 2.6 m/s)
Visibility: 3 miles ( 5 km)
Ceiling: at least 12,000 feet AGL
Clouds: sky clear below 12,000 feet AGL
Weather: HZ  (haze)

METAR text: VERC 180700Z 03005KT 5000 HZ NSC 23/02 Q1017 NOSIG
Conditions at: VERC (RANCHI , IN) observed 0700 UTC 18 January 2019
Temperature: 23.0°C (73°F)
Dewpoint: 2.0°C (36°F) [RH = 25%]
Pressure (altimeter): 30.03 inches Hg (1017.0 mb)
Winds: from the NNE (30 degrees) at 6 MPH (5 knots; 2.6 m/s)
Visibility: 3 miles ( 5 km)
Ceiling: at least 12,000 feet AGL
Clouds: sky clear below 12,000 feet AGL
Weather: HZ  (haze)

METAR text: VERC 180630Z 35003KT 5000 HZ NSC 21/02 Q1018 NOSIG
Conditions at: VERC (RANCHI , IN) observed 0630 UTC 18 January 2019
Temperature: 21.0°C (70°F)
Dewpoint: 2.0°C (36°F) [RH = 28%]
Pressure (altimeter): 30.06 inches Hg (1018.0 mb)
Winds: from the N (350 degrees) at 3 MPH (3 knots; 1.5 m/s)
Visibility: 3 miles ( 5 km)
Ceiling: at least 12,000 feet AGL
Clouds: sky clear below 12,000 feet AGL
Weather: HZ  (haze)

METAR text: VERC 180600Z 03003KT 4500 HZ NSC 24/02 Q1018 BECMG 5000 HZ
Conditions at: VERC (RANCHI , IN) observed 0600 UTC 18 January 2019
Temperature: 24.0°C (75°F)
Dewpoint: 2.0°C (36°F) [RH = 24%]
Pressure (altimeter): 30.06 inches Hg (1018.0 mb)
Winds: from the NNE (30 degrees) at 3 MPH (3 knots; 1.5 m/s)
Visibility: 2.80 miles (4.51 km)
Ceiling: at least 12,000 feet AGL
Clouds: sky clear below 12,000 feet AGL
Weather: HZ  (haze)

METAR text: VERC 180530Z 00000KT 4000 HZ NSC 21/06 Q1019
Conditions at: VERC (RANCHI , IN) observed 0530 UTC 18 January 2019
Temperature: 21.0°C (70°F)
Dewpoint: 6.0°C (43°F) [RH = 38%]
Pressure (altimeter): 30.09 inches Hg (1019.0 mb)
Winds: calm
Visibility: 2.49 miles (4.01 km)
Ceiling: at least 12,000 feet AGL
Clouds: sky clear below 12,000 feet AGL
Weather: HZ  (haze)

METAR text: VERC 180500Z 00000KT 3000 HZ NSC 20/06 Q1019
Conditions at: VERC (RANCHI , IN) observed 0500 UTC 18 January 2019
Temperature: 20.0°C (68°F)
Dewpoint: 6.0°C (43°F) [RH = 40%]
Pressure (altimeter): 30.09 inches Hg (1019.0 mb)
Winds: calm
Visibility: 1.86 miles (2.99 km)
Ceiling: at least 12,000 feet AGL
Clouds: sky clear below 12,000 feet AGL
Weather: HZ  (haze)

METAR text: VERC 180430Z 00000KT 2500 HZ NSC 20/06 Q1019 BECMG 3000 HZ
Conditions at: VERC (RANCHI , IN) observed 0430 UTC 18 January 2019
Temperature: 20.0°C (68°F)
Dewpoint: 6.0°C (43°F) [RH = 40%]
Pressure (altimeter): 30.09 inches Hg (1019.0 mb)
Winds: calm
Visibility: 1.55 miles (2.49 km)
Ceiling: at least 12,000 feet AGL
Clouds: sky clear below 12,000 feet AGL
Weather: HZ  (haze)

METAR text: VERC 180400Z 00000KT 2000 HZ NSC 15/03 Q1019 NOSIG
Conditions at: VERC (RANCHI , IN) observed 0400 UTC 18 January 2019
Temperature: 15.0°C (59°F)
Dewpoint: 3.0°C (37°F) [RH = 44%]
Pressure (altimeter): 30.09 inches Hg (1019.0 mb)
Winds: calm
Visibility: 1.24 miles (2.00 km)
Ceiling: at least 12,000 feet AGL
Clouds: sky clear below 12,000 feet AGL
Weather: HZ  (haze)

Forecast for: VERC (RANCHI , IN)
Text: TAF VERC 191100Z 1912/1921 03003KT 4000 HZ NSC
Forecast period: 1200 to 1600 UTC 19 January 2019
Forecast type: FROM: standard forecast or significant change
Winds: from the NNE (30 degrees) at 3 MPH (3 knots; 1.5 m/s)
Visibility: 2.49 miles (4.01 km)
Ceiling: unknown
Clouds: missing
Weather: HZ  (haze)
Text: BECMG 1916/1918 00000KT 3000 HZ
Forecast period: 1600 to 2100 UTC 19 January 2019
Forecast type: BECOMING: Conditions expected to become as follows by 1800 UTC 19 January 2019
Winds: calm
Visibility: 1.86 miles (2.99 km)
Ceiling: unknown
Clouds: missing
Weather: HZ  (haze)